This is the latest recevied weather packets stored in our database for station/object W4FXD. If no packets are shown the sender has not sent any weather packets the latest 1 day(s).
| Time | Temp. | Humidity | Pressure | Rain* | Wind** | Luminosity | Snow |
|---|---|---|---|---|---|---|---|
| 1778007545 | 22.78° C | 48% | 1013.1 hPa | 0 mm | 0 m/s | 298 W/m² | - |
| 1778007242 | 22.78° C | 49% | 1013 hPa | 0 mm | 0.89 m/s, 156° | 289 W/m² | - |
| 1778006938 | 22.78° C | 50% | 1013.2 hPa | 0 mm | 0.89 m/s, 58° | 340 W/m² | - |
| 1778006635 | 22.78° C | 48% | 1013.2 hPa | 0 mm | 0.89 m/s, 187° | 316 W/m² | - |
| 1778006332 | 22.78° C | 50% | 1013.1 hPa | 0 mm | 1.34 m/s, 210° | 420 W/m² | - |
| 1778006029 | 22.78° C | 49% | 1013.4 hPa | 0 mm | 2.24 m/s, 172° | 394 W/m² | - |
| 1778005726 | 22.78° C | 50% | 1013.4 hPa | 0 mm | 0.89 m/s, 244° | 426 W/m² | - |
| 1778005422 | 22.78° C | 51% | 1013.7 hPa | 0 mm | 1.34 m/s, 199° | 544 W/m² | - |
| 1778005119 | 22.22° C | 50% | 1013.6 hPa | 0 mm | 1.79 m/s, 191° | 440 W/m² | - |
| 1778004817 | 22.78° C | 51% | 1013.7 hPa | 0 mm | 2.24 m/s, 189° | 433 W/m² | - |
| 1778004513 | 22.78° C | 50% | 1013.8 hPa | 0 mm | 1.34 m/s, 272° | 436 W/m² | - |
| 1778004210 | 22.78° C | 50% | 1013.9 hPa | 0 mm | 2.24 m/s, 166° | 492 W/m² | - |
| 1778003906 | 22.78° C | 49% | 1014.3 hPa | 0 mm | 1.34 m/s, 288° | 540 W/m² | - |
| 1778003603 | 22.22° C | 49% | 1014.3 hPa | 0 mm | 0.89 m/s, 281° | 585 W/m² | - |
| 1778003299 | 22.22° C | 49% | 1014.4 hPa | 0 mm | 0.89 m/s, 181° | 385 W/m² | - |
| 1778002997 | 22.22° C | 51% | 1014.2 hPa | 0 mm | 1.34 m/s, 206° | 505 W/m² | - |
| 1778002692 | 22.22° C | 52% | 1014.3 hPa | 0 mm | 2.24 m/s, 243° | 302 W/m² | - |
| 1778002389 | 22.22° C | 52% | 1014.4 hPa | 0 mm | 2.24 m/s, 184° | 462 W/m² | - |
| 1778002092 | 22.22° C | 53% | 1014.3 hPa | 0 mm | 1.34 m/s, 275° | 371 W/m² | - |
| 1778001784 | 21.67° C | 54% | 1014.4 hPa | 0 mm | 0 m/s | 332 W/m² | - |
| 1778001478 | 21.67° C | 54% | 1014.5 hPa | 0 mm | 1.34 m/s, 199° | 281 W/m² | - |
| 1778001175 | 21.67° C | 54% | 1014.6 hPa | 0 mm | 0.89 m/s, 241° | 462 W/m² | - |
| 1778000872 | 21.67° C | 53% | 1014.5 hPa | 0 mm | 1.34 m/s, 211° | 310 W/m² | - |
| 1778000569 | 21.67° C | 53% | 1014.8 hPa | 0 mm | 1.34 m/s, 207° | 361 W/m² | - |
| 1778000264 | 22.22° C | 55% | 1014.7 hPa | 0 mm | 1.34 m/s, 195° | 292 W/m² | - |
* Rain latest hour (hover to see other rain measurements)
** Current wind speed in m/s (hover to see current wind gust speed)